Time;durP1;ratioP1;P1;durP2;ratioP2;P2;SDS_P1;SDS_P2;PMS_P1;PMS_P2;Temp;Humidity;BMP_temperature;BMP_pressure;BME280_temperature;BME280_humidity;BME280_pressure;Samples;Min_cycle;Max_cycle;Signal;HPM_P1;HPM_P2
2022/11/29 07:56:08;;;;;;;0.20;0.10;;;9.30;99.90;;;;;;21374113;27;20362;-70
2022/11/29 08:06:12;;;;;;;0.20;0.10;;;9.90;99.90;;;;;;21375227;27;20490;-72
2022/11/29 08:16:19;;;;;;;0.20;0.10;;;10.00;99.90;;;;;;21372854;27;20395;-70
2022/11/29 08:26:23;;;;;;;0.20;0.10;;;10.40;99.90;;;;;;21354441;27;20408;-71
2022/11/29 08:36:42;;;;;;;0.20;0.10;;;11.00;99.90;;;;;;21354183;27;20380;-70
2022/11/29 08:57:09;;;;;;;0.20;0.10;;;11.10;99.90;;;;;;21224011;28;20383;-68
2022/11/29 09:07:35;;;;;;;0.20;0.10;;;11.30;99.90;;;;;;21224537;28;20433;-69
2022/11/29 09:17:46;;;;;;;0.20;0.10;;;11.40;99.90;;;;;;21203839;28;20383;-69
2022/11/29 09:27:50;;;;;;;0.20;0.03;;;11.80;99.90;;;;;;21211126;28;20408;-70
2022/11/29 09:37:55;;;;;;;0.20;0.10;;;12.30;99.90;;;;;;21221554;28;20477;-69
2022/11/29 09:48:43;;;;;;;0.20;0.10;;;12.70;99.90;;;;;;21216505;28;20422;-70
2022/11/29 09:58:52;;;;;;;0.20;0.10;;;12.80;99.90;;;;;;21055506;28;20411;-69
2022/11/29 10:09:02;;;;;;;0.20;0.10;;;13.50;99.90;;;;;;21132730;28;20412;-70
2022/11/29 10:19:14;;;;;;;0.20;0.10;;;13.80;99.90;;;;;;21132306;28;20428;-69
2022/11/29 10:29:18;;;;;;;0.20;0.10;;;14.20;99.90;;;;;;21132221;28;20404;-69
2022/11/29 10:39:29;;;;;;;0.20;0.03;;;14.80;99.90;;;;;;21132252;28;20412;-69
2022/11/29 10:49:39;;;;;;;0.20;0.10;;;15.50;99.90;;;;;;21210831;28;20410;-67
2022/11/29 10:59:59;;;;;;;0.20;0.00;;;16.40;99.90;;;;;;21212862;28;20405;-68
2022/11/29 11:10:17;;;;;;;0.20;0.10;;;17.70;99.90;;;;;;21213615;28;20523;-67
2022/11/29 11:20:24;;;;;;;0.20;0.00;;;18.50;99.90;;;;;;21210302;28;20393;-70
2022/11/29 11:30:29;;;;;;;0.20;0.00;;;18.10;99.90;;;;;;21211709;28;20394;-68
2022/11/29 11:40:34;;;;;;;0.20;0.00;;;18.10;99.90;;;;;;21207116;28;20387;-71
2022/11/29 11:50:43;;;;;;;0.20;0.00;;;18.20;99.90;;;;;;21208853;28;20588;-69
2022/11/29 12:00:52;;;;;;;0.20;0.10;;;17.70;99.90;;;;;;21206789;28;20378;-70
2022/11/29 12:11:14;;;;;;;0.20;0.10;;;17.60;99.90;;;;;;21208429;28;20794;-67
2022/11/29 12:21:24;;;;;;;0.20;0.10;;;17.70;99.90;;;;;;21204437;28;20399;-69
2022/11/29 12:31:43;;;;;;;0.20;0.10;;;17.40;99.90;;;;;;21220792;28;20386;-69
2022/11/29 12:41:55;;;;;;;0.20;0.10;;;17.70;99.90;;;;;;21221917;28;20393;-68
2022/11/29 12:52:05;;;;;;;0.20;0.10;;;17.20;99.90;;;;;;21217938;28;20410;-69
2022/11/29 13:02:26;;;;;;;0.20;0.10;;;17.50;99.90;;;;;;21217443;28;20387;-68
2022/11/29 13:12:37;;;;;;;0.20;0.10;;;17.70;99.90;;;;;;21217934;28;20430;-69
2022/11/29 13:22:52;;;;;;;0.20;0.10;;;16.90;99.90;;;;;;21216083;28;20402;-68
2022/11/29 13:33:03;;;;;;;0.20;0.10;;;16.90;99.90;;;;;;21214382;28;20430;-70
2022/11/29 13:43:18;;;;;;;0.20;0.10;;;17.10;99.90;;;;;;21221471;27;20385;-69
2022/11/29 13:53:24;;;;;;;0.20;0.10;;;17.20;99.90;;;;;;21305846;27;20424;-68
2022/11/29 14:03:33;;;;;;;0.20;0.00;;;17.60;99.90;;;;;;21304021;27;20489;-68
2022/11/29 14:13:47;;;;;;;0.20;0.10;;;20.00;99.90;;;;;;21304890;27;20929;-67
2022/11/29 14:23:52;;;;;;;0.20;0.10;;;20.70;99.90;;;;;;21302013;27;20418;-67
2022/11/29 14:34:04;;;;;;;0.20;0.10;;;19.90;99.90;;;;;;21301663;27;20397;-69
2022/11/29 14:44:17;;;;;;;0.20;0.10;;;17.90;99.90;;;;;;21299187;27;20389;-68
2022/11/29 14:54:24;;;;;;;0.20;0.10;;;17.40;99.90;;;;;;21298251;27;20405;-67
2022/11/29 15:04:33;;;;;;;0.20;0.00;;;17.40;99.90;;;;;;21299629;27;20401;-67
2022/11/29 15:14:50;;;;;;;0.20;0.00;;;18.80;99.90;;;;;;21265038;27;20418;-66
2022/11/29 15:24:59;;;;;;;0.20;0.00;;;19.90;99.90;;;;;;21210728;28;20482;-68
2022/11/29 15:35:04;;;;;;;0.20;0.10;;;18.10;99.90;;;;;;21212319;28;20409;-67
2022/11/29 15:45:27;;;;;;;0.20;0.10;;;17.20;99.90;;;;;;21209429;28;20394;-67
2022/11/29 15:55:31;;;;;;;0.20;0.10;;;16.80;99.90;;;;;;21207757;28;20399;-68
2022/11/29 16:05:39;;;;;;;0.20;0.00;;;15.70;99.90;;;;;;21223630;28;20405;-68
2022/11/29 16:15:43;;;;;;;0.20;0.10;;;15.30;99.90;;;;;;21227366;28;20438;-67
2022/11/29 16:25:58;;;;;;;0.20;0.10;;;15.10;99.90;;;;;;21224549;27;20413;-68
2022/11/29 16:36:06;;;;;;;0.20;0.10;;;14.70;99.90;;;;;;21220276;28;20391;-69
2022/11/29 16:46:34;;;;;;;0.20;0.00;;;14.10;99.90;;;;;;21222540;27;20428;-69
2022/11/29 16:56:39;;;;;;;0.20;0.10;;;13.30;99.90;;;;;;21214132;28;20398;-68
2022/11/29 17:06:45;;;;;;;0.20;0.00;;;12.80;99.90;;;;;;21220906;27;20403;-68
2022/11/29 17:16:50;;;;;;;0.20;0.00;;;12.60;99.90;;;;;;21221917;27;20406;-70
2022/11/29 17:26:56;;;;;;;0.20;0.10;;;12.20;99.90;;;;;;21220225;28;20424;-69
2022/11/29 17:37:02;;;;;;;0.20;0.10;;;12.00;99.90;;;;;;21218687;28;20402;-69
2022/11/29 17:47:07;;;;;;;0.20;0.10;;;12.00;99.90;;;;;;21280919;27;20401;-67
2022/11/29 17:57:10;;;;;;;0.20;0.10;;;11.70;99.90;;;;;;21281942;27;20404;-69
2022/11/29 18:07:16;;;;;;;0.20;0.10;;;11.50;99.90;;;;;;21303196;27;20407;-69
2022/11/29 18:17:20;;;;;;;0.20;0.10;;;11.50;99.90;;;;;;21158694;27;20415;-70
2022/11/29 18:27:26;;;;;;;0.20;0.00;;;11.30;99.90;;;;;;21213008;28;20386;-68
2022/11/29 18:37:29;;;;;;;0.20;0.00;;;11.30;99.90;;;;;;21215869;28;20389;-68
2022/11/29 18:47:54;;;;;;;0.20;0.00;;;11.50;99.90;;;;;;21240304;27;20436;-69
2022/11/29 18:57:58;;;;;;;0.20;0.10;;;11.70;99.90;;;;;;21214528;28;20436;-69
2022/11/29 19:08:03;;;;;;;0.20;0.10;;;11.70;99.90;;;;;;21210453;28;20402;-67
2022/11/29 19:18:07;;;;;;;0.20;0.10;;;11.50;99.90;;;;;;21209988;28;20390;-68
2022/11/29 19:28:12;;;;;;;0.20;0.10;;;11.40;99.90;;;;;;21212795;28;20436;-68
2022/11/29 19:38:29;;;;;;;0.20;0.10;;;11.30;99.90;;;;;;21211752;28;20434;-67
2022/11/29 19:48:35;;;;;;;0.20;0.10;;;11.10;99.90;;;;;;21208440;28;20414;-68
2022/11/29 19:58:38;;;;;;;0.20;0.10;;;10.80;99.90;;;;;;21211981;28;20398;-69
2022/11/29 20:08:45;;;;;;;0.20;0.08;;;10.80;99.90;;;;;;21210310;28;20411;-67
2022/11/29 20:18:50;;;;;;;0.20;0.00;;;10.40;99.90;;;;;;21210364;28;20561;-69
2022/11/29 20:28:55;;;;;;;0.20;0.10;;;10.20;99.90;;;;;;21208233;28;20402;-69
2022/11/29 20:39:06;;;;;;;0.20;0.10;;;10.00;99.90;;;;;;21126142;28;20407;-69
2022/11/29 20:49:13;;;;;;;0.20;0.00;;;10.30;99.90;;;;;;21211761;28;20482;-67
2022/11/29 20:59:17;;;;;;;0.20;0.10;;;10.50;99.90;;;;;;21221900;28;20402;-66
2022/11/29 21:09:25;;;;;;;0.20;0.10;;;10.30;99.90;;;;;;21223727;28;20401;-67
2022/11/29 21:19:31;;;;;;;0.20;0.10;;;10.70;99.90;;;;;;21223783;28;20660;-67
2022/11/29 21:29:51;;;;;;;0.20;0.00;;;10.80;99.90;;;;;;21221232;28;20402;-68
2022/11/29 21:40:12;;;;;;;0.20;0.00;;;10.80;99.90;;;;;;21203450;28;20409;-68
2022/11/29 21:50:24;;;;;;;0.20;0.00;;;10.70;99.90;;;;;;21219111;28;20399;-67
2022/11/29 22:00:30;;;;;;;0.20;0.10;;;10.60;99.90;;;;;;21219257;28;20383;-68
2022/11/29 22:10:41;;;;;;;0.20;0.10;;;10.20;99.90;;;;;;21219057;28;20436;-69
2022/11/29 22:20:46;;;;;;;0.20;0.10;;;10.40;99.90;;;;;;21213029;28;20410;-68
2022/11/29 22:30:51;;;;;;;0.20;0.00;;;10.40;99.90;;;;;;21213790;28;20410;-68
2022/11/29 22:40:59;;;;;;;0.20;0.10;;;10.20;99.90;;;;;;21210886;28;20386;-68
2022/11/29 22:51:06;;;;;;;0.20;0.10;;;9.90;99.90;;;;;;21213621;28;20409;-68
2022/11/29 23:01:14;;;;;;;0.20;0.10;;;10.00;99.90;;;;;;21213441;28;20612;-68
2022/11/29 23:11:22;;;;;;;0.20;0.10;;;10.00;99.90;;;;;;21206158;28;20496;-69
2022/11/29 23:21:27;;;;;;;0.20;0.00;;;9.90;99.90;;;;;;21210750;28;20746;-68
2022/11/29 23:31:33;;;;;;;0.20;0.10;;;10.00;99.90;;;;;;21186137;28;20412;-68
2022/11/29 23:41:38;;;;;;;0.20;0.10;;;10.00;99.90;;;;;;21143252;28;20413;-68
2022/11/29 23:51:43;;;;;;;0.20;0.10;;;9.90;99.90;;;;;;21209352;28;20395;-69
